createdAt,value
2023-05-25T00:00:53.438Z,50.95
2023-05-25T00:03:27.938Z,51.05
2023-05-25T00:05:54.602Z,50.93
2023-05-25T00:08:21.210Z,50.88
2023-05-25T00:10:47.659Z,50.83
2023-05-25T00:13:14.044Z,50.80
2023-05-25T00:15:40.680Z,50.81
2023-05-25T00:18:07.124Z,51.04
2023-05-25T00:20:33.620Z,51.02
2023-05-25T00:23:02.236Z,50.98
2023-05-25T00:25:29.059Z,50.85
2023-05-25T00:27:55.469Z,50.84
2023-05-25T00:30:21.907Z,50.99
2023-05-25T00:32:48.374Z,50.89
2023-05-25T00:35:14.858Z,50.85
2023-05-25T00:37:41.270Z,50.74
2023-05-25T00:40:10.688Z,50.77
2023-05-25T00:42:38.679Z,50.80
2023-05-25T00:45:05.290Z,50.79
2023-05-25T00:47:32.069Z,50.74
2023-05-25T00:49:58.491Z,50.71
2023-05-25T00:52:27.092Z,50.79
2023-05-25T00:54:56.237Z,50.70
2023-05-25T00:57:23.474Z,50.91
2023-05-25T00:59:51.528Z,50.75
2023-05-25T01:02:19.067Z,50.69
2023-05-25T01:04:47.011Z,50.74
2023-05-25T01:07:17.616Z,50.72
2023-05-25T01:09:46.754Z,50.94
2023-05-25T01:12:14.545Z,50.86
2023-05-25T01:14:41.021Z,50.61
2023-05-25T01:17:07.808Z,50.65
2023-05-25T01:19:35.944Z,50.66
2023-05-25T01:22:07.831Z,50.89
2023-05-25T01:24:34.984Z,50.69
2023-05-25T01:27:07.920Z,50.88
2023-05-25T01:29:35.055Z,50.93
2023-05-25T01:32:02.741Z,50.61
2023-05-25T01:34:29.178Z,50.87
2023-05-25T01:36:56.629Z,50.93
2023-05-25T01:39:23.107Z,50.65
2023-05-25T01:41:49.576Z,50.65
2023-05-25T01:44:15.987Z,50.69
2023-05-25T01:46:42.463Z,50.69
2023-05-25T01:49:28.236Z,50.94
2023-05-25T01:52:00.637Z,50.87
2023-05-25T01:54:29.535Z,50.69
2023-05-25T01:56:56.350Z,50.93
2023-05-25T01:59:22.830Z,50.64
2023-05-25T02:01:53.114Z,50.68
2023-05-25T02:04:20.089Z,50.68
2023-05-25T02:06:48.321Z,50.61
2023-05-25T02:09:14.771Z,50.65
2023-05-25T02:11:41.161Z,50.86
2023-05-25T02:14:09.034Z,50.52
2023-05-25T02:16:35.514Z,50.54
2023-05-25T02:19:02.226Z,50.56
2023-05-25T02:21:28.786Z,50.62
2023-05-25T02:23:55.229Z,50.62
2023-05-25T02:26:21.754Z,50.83
2023-05-25T02:28:48.175Z,50.65
2023-05-25T02:31:17.052Z,50.79
2023-05-25T02:33:43.516Z,50.54
2023-05-25T02:36:09.942Z,50.59
2023-05-25T02:38:36.348Z,50.67
2023-05-25T02:41:02.831Z,50.79
2023-05-25T02:43:29.261Z,50.60
2023-05-25T02:45:55.659Z,50.77
2023-05-25T02:48:23.151Z,50.73
2023-05-25T02:50:49.581Z,50.68
2023-05-25T02:53:16.004Z,50.46
2023-05-25T02:55:43.550Z,50.66
2023-05-25T02:58:14.586Z,50.45
2023-05-25T03:00:56.903Z,50.61
2023-05-25T03:03:23.384Z,50.76
2023-05-25T03:05:49.860Z,50.73
2023-05-25T03:08:16.763Z,50.68
2023-05-25T03:10:43.148Z,50.71
2023-05-25T03:13:09.927Z,50.63
2023-05-25T03:15:36.374Z,50.67
2023-05-25T03:18:04.775Z,50.68
2023-05-25T03:20:34.821Z,50.45
2023-05-25T03:23:01.520Z,50.62
2023-05-25T03:25:28.045Z,50.48
2023-05-25T03:27:54.543Z,50.72
2023-05-25T03:30:21.805Z,50.39
2023-05-25T03:32:48.231Z,50.58
2023-05-25T03:35:14.889Z,50.48
2023-05-25T03:37:41.293Z,50.41
2023-05-25T03:40:09.579Z,50.59
2023-05-25T03:42:36.800Z,50.77
2023-05-25T03:45:03.410Z,50.69
2023-05-25T03:47:29.922Z,50.66
2023-05-25T03:49:56.880Z,50.62
2023-05-25T03:52:23.290Z,50.48
2023-05-25T03:54:49.750Z,50.69
2023-05-25T03:57:16.224Z,50.45
2023-05-25T03:59:42.626Z,50.45
2023-05-25T04:02:09.129Z,50.45
2023-05-25T04:04:35.538Z,50.43
2023-05-25T04:07:02.000Z,50.72
2023-05-25T04:09:29.803Z,50.65
2023-05-25T04:11:56.221Z,50.72
2023-05-25T04:14:22.913Z,50.75
2023-05-25T04:16:49.497Z,50.38
2023-05-25T04:19:16.234Z,50.74
2023-05-25T04:21:42.649Z,50.72
2023-05-25T04:24:10.402Z,50.72
2023-05-25T04:26:39.426Z,50.78
2023-05-25T04:29:06.988Z,50.77
2023-05-25T04:31:54.646Z,50.73
2023-05-25T04:34:39.710Z,50.85
2023-05-25T04:37:13.863Z,50.69
2023-05-25T04:39:40.453Z,50.56
2023-05-25T04:42:07.781Z,50.72
2023-05-25T04:44:34.681Z,50.58
2023-05-25T04:47:02.550Z,50.78
2023-05-25T04:49:31.712Z,50.74
2023-05-25T04:51:58.187Z,50.68
2023-05-25T04:54:25.588Z,50.92
2023-05-25T04:56:52.016Z,50.71
2023-05-25T04:59:18.402Z,50.92
2023-05-25T05:01:45.803Z,51.09
2023-05-25T05:04:16.272Z,51.10
2023-05-25T05:06:42.844Z,50.63
2023-05-25T05:09:13.910Z,50.88
2023-05-25T05:11:40.386Z,50.80
2023-05-25T05:14:07.445Z,51.23
2023-05-25T05:16:35.147Z,51.20
2023-05-25T05:19:02.012Z,51.14
2023-05-25T05:21:29.161Z,50.93
2023-05-25T05:23:56.289Z,51.03
2023-05-25T05:26:23.016Z,51.01
2023-05-25T05:28:49.453Z,50.86
2023-05-25T05:31:18.512Z,50.98
2023-05-25T05:33:45.181Z,51.07
2023-05-25T05:36:11.654Z,50.96
2023-05-25T05:38:41.370Z,51.12
2023-05-25T05:41:13.959Z,51.02
2023-05-25T05:43:42.777Z,50.90
2023-05-25T05:46:09.822Z,52.55
2023-05-25T05:48:36.702Z,53.60
2023-05-25T05:51:04.042Z,54.00
2023-05-25T05:53:30.737Z,51.92
2023-05-25T05:55:59.301Z,52.59
2023-05-25T05:58:28.782Z,52.58
2023-05-25T06:00:56.260Z,52.38
2023-05-25T06:03:22.922Z,52.23
2023-05-25T06:05:49.365Z,52.55
2023-05-25T06:08:17.226Z,52.51
2023-05-25T06:10:43.605Z,52.63
2023-05-25T06:13:10.009Z,52.52
2023-05-25T06:15:36.435Z,52.91
2023-05-25T06:18:08.182Z,52.75
2023-05-25T06:20:35.663Z,52.30
2023-05-25T06:23:02.088Z,53.31
2023-05-25T06:25:28.552Z,53.60
2023-05-25T06:27:55.861Z,53.26
2023-05-25T06:30:22.269Z,52.90
2023-05-25T06:32:48.833Z,52.63
2023-05-25T06:35:19.853Z,52.56
2023-05-25T06:37:49.080Z,52.28
2023-05-25T06:40:17.676Z,52.26
2023-05-25T06:42:45.287Z,52.13
2023-05-25T06:45:40.772Z,51.88
2023-05-25T06:48:07.207Z,52.34
2023-05-25T06:50:33.668Z,52.09
2023-05-25T06:53:00.622Z,52.26
2023-05-25T06:55:27.144Z,52.17
2023-05-25T06:57:53.521Z,52.25
2023-05-25T07:00:21.415Z,52.37
2023-05-25T07:02:47.855Z,52.50
2023-05-25T07:05:14.321Z,52.35
2023-05-25T07:07:40.776Z,51.34
2023-05-25T07:10:07.485Z,51.39
2023-05-25T07:12:33.868Z,51.10
2023-05-25T07:15:00.260Z,50.99
2023-05-25T07:17:26.769Z,51.46
2023-05-25T07:19:53.357Z,51.43
2023-05-25T07:22:19.834Z,51.79
2023-05-25T07:24:46.853Z,52.28
2023-05-25T07:27:14.126Z,52.51
2023-05-25T07:29:40.521Z,52.01
2023-05-25T07:32:07.102Z,51.42
2023-05-25T07:34:33.706Z,50.98
2023-05-25T07:37:00.102Z,51.06
2023-05-25T07:39:26.797Z,50.98
2023-05-25T07:41:53.216Z,50.89
2023-05-25T07:44:19.625Z,50.88
2023-05-25T07:49:15.962Z,50.48
2023-05-25T07:51:43.166Z,50.59
2023-05-25T07:54:09.568Z,50.39
2023-05-25T07:56:36.045Z,50.41
2023-05-25T07:59:02.420Z,50.42
2023-05-25T08:01:28.947Z,50.15
2023-05-25T08:03:55.442Z,50.30
2023-05-25T08:06:21.991Z,50.25
2023-05-25T08:08:49.939Z,50.25
2023-05-25T08:11:17.047Z,50.02
2023-05-25T08:13:43.606Z,49.79
2023-05-25T08:16:10.001Z,49.96
2023-05-25T08:18:36.417Z,50.77
2023-05-25T08:21:02.856Z,51.28
2023-05-25T08:23:29.260Z,51.41
2023-05-25T08:25:55.644Z,50.31
2023-05-25T08:28:22.278Z,50.02
2023-05-25T08:30:48.734Z,50.05
2023-05-25T08:33:15.158Z,49.64
2023-05-25T08:35:42.997Z,49.77
2023-05-25T08:38:09.585Z,48.96
2023-05-25T08:40:35.970Z,48.37
2023-05-25T08:43:02.379Z,48.37
2023-05-25T08:45:36.092Z,48.30
2023-05-25T08:48:04.468Z,48.08
2023-05-25T08:50:31.107Z,48.46
2023-05-25T08:52:57.493Z,48.90
2023-05-25T08:55:23.943Z,48.69
2023-05-25T08:58:03.225Z,48.66
2023-05-25T09:00:31.231Z,48.91
2023-05-25T09:03:07.277Z,48.75
2023-05-25T09:05:38.056Z,48.45
2023-05-25T09:08:05.168Z,48.31
2023-05-25T09:10:31.531Z,48.19
2023-05-25T09:12:57.943Z,48.26
2023-05-25T09:15:24.332Z,48.49
2023-05-25T09:17:50.799Z,48.32
2023-05-25T09:20:17.257Z,48.23
2023-05-25T09:22:43.935Z,48.72
2023-05-25T09:25:10.467Z,48.47
2023-05-25T09:27:37.559Z,48.45
2023-05-25T09:30:04.067Z,48.52
2023-05-25T09:32:30.710Z,48.31
2023-05-25T09:34:57.784Z,48.48
2023-05-25T09:37:24.278Z,48.54
2023-05-25T09:39:51.289Z,48.48
2023-05-25T09:42:17.859Z,48.62
2023-05-25T09:44:44.252Z,49.18
2023-05-25T09:47:10.763Z,48.46
2023-05-25T09:49:37.190Z,48.60
2023-05-25T09:52:03.913Z,49.02
2023-05-25T09:54:30.381Z,49.17
2023-05-25T09:56:56.773Z,49.59
2023-05-25T09:59:23.187Z,49.47
2023-05-25T10:01:50.859Z,49.47
2023-05-25T10:04:17.282Z,49.71
2023-05-25T10:06:43.967Z,49.40
2023-05-25T10:09:10.349Z,49.80
2023-05-25T10:11:36.833Z,49.76
2023-05-25T10:14:04.319Z,49.69
2023-05-25T10:16:30.964Z,49.81
2023-05-25T10:18:57.333Z,49.62
2023-05-25T10:21:23.735Z,48.34
2023-05-25T10:23:51.184Z,47.79
2023-05-25T10:26:21.942Z,47.67
2023-05-25T10:28:50.421Z,47.48
2023-05-25T10:31:16.905Z,48.12
2023-05-25T10:33:47.458Z,48.11
2023-05-25T10:36:17.951Z,48.36
2023-05-25T10:38:44.761Z,47.90
2023-05-25T10:41:11.268Z,48.34
2023-05-25T10:43:38.362Z,48.83
2023-05-25T10:46:05.377Z,48.18
2023-05-25T10:48:48.471Z,47.85
2023-05-25T10:51:14.879Z,47.94
2023-05-25T10:53:45.862Z,47.61
2023-05-25T10:56:13.341Z,47.92
2023-05-25T10:58:46.443Z,48.06
2023-05-25T11:01:13.361Z,47.81
2023-05-25T11:03:58.850Z,48.09
2023-05-25T11:06:37.601Z,47.52
2023-05-25T11:09:04.233Z,47.79
2023-05-25T11:11:43.019Z,47.47
2023-05-25T11:14:21.695Z,47.69
2023-05-25T11:17:03.862Z,47.64
2023-05-25T11:19:38.757Z,47.60
2023-05-25T11:22:15.249Z,47.65
2023-05-25T11:24:45.206Z,47.77
2023-05-25T11:27:11.685Z,47.86
2023-05-25T11:29:38.130Z,47.85
2023-05-25T11:32:04.569Z,48.11
2023-05-25T11:34:32.031Z,49.07
2023-05-25T11:37:01.676Z,47.79
2023-05-25T11:39:28.556Z,47.55
2023-05-25T11:41:55.961Z,47.40
2023-05-25T11:44:27.237Z,47.38
2023-05-25T11:46:54.447Z,47.82
2023-05-25T11:49:21.300Z,48.12
2023-05-25T11:51:47.694Z,48.65
2023-05-25T11:54:41.565Z,47.66
2023-05-25T11:57:14.455Z,47.58
2023-05-25T11:59:41.003Z,47.50
2023-05-25T12:02:07.436Z,47.50
2023-05-25T12:04:34.195Z,47.91
2023-05-25T12:07:04.305Z,48.06
2023-05-25T12:09:30.711Z,48.26
2023-05-25T12:11:57.109Z,48.51
2023-05-25T12:14:23.984Z,48.18
2023-05-25T12:16:50.547Z,48.00
2023-05-25T12:19:16.957Z,48.52
2023-05-25T12:21:43.384Z,48.10
2023-05-25T12:24:09.998Z,48.06
2023-05-25T12:26:36.668Z,48.01
2023-05-25T12:29:06.483Z,47.65
2023-05-25T12:31:34.149Z,47.96
2023-05-25T12:34:04.062Z,47.78
2023-05-25T12:36:42.823Z,47.54
2023-05-25T12:39:09.821Z,47.73
2023-05-25T12:41:43.141Z,47.28
2023-05-25T12:44:26.063Z,47.30
2023-05-25T12:46:53.087Z,47.31
2023-05-25T12:49:22.498Z,47.43
2023-05-25T12:51:48.883Z,47.50
2023-05-25T12:54:15.429Z,47.81
2023-05-25T12:56:54.574Z,47.21
2023-05-25T12:59:21.281Z,46.93
2023-05-25T13:01:47.721Z,47.10
2023-05-25T13:04:14.113Z,47.35
2023-05-25T13:06:40.508Z,47.09
2023-05-25T13:09:06.882Z,47.26
2023-05-25T13:11:33.252Z,47.43
2023-05-25T13:13:59.625Z,47.32
2023-05-25T13:16:26.588Z,48.00
2023-05-25T13:18:53.027Z,47.95
2023-05-25T13:21:19.436Z,47.79
2023-05-25T13:23:45.839Z,48.30
2023-05-25T13:26:12.715Z,48.53
2023-05-25T13:28:39.116Z,48.68
2023-05-25T13:31:05.530Z,48.75
2023-05-25T13:33:31.917Z,48.92
2023-05-25T13:35:58.861Z,48.78
2023-05-25T13:38:25.414Z,48.31
2023-05-25T13:40:52.487Z,48.84
2023-05-25T13:43:18.986Z,48.01
2023-05-25T13:45:45.583Z,48.18
2023-05-25T13:48:12.222Z,47.92
2023-05-25T13:50:38.630Z,48.37
2023-05-25T13:53:05.407Z,48.07
2023-05-25T13:55:31.794Z,47.55
2023-05-25T13:57:58.240Z,47.51
2023-05-25T14:00:24.727Z,47.93
2023-05-25T14:02:51.532Z,48.38
2023-05-25T14:05:19.742Z,48.12
2023-05-25T14:07:47.065Z,48.06
2023-05-25T14:10:13.513Z,47.92
2023-05-25T14:12:39.967Z,48.11
2023-05-25T14:15:06.704Z,47.75
2023-05-25T14:17:33.113Z,47.86
2023-05-25T14:19:59.994Z,48.13
2023-05-25T14:22:27.877Z,47.99
2023-05-25T14:24:54.293Z,48.12
2023-05-25T14:27:23.609Z,47.79
2023-05-25T14:29:50.508Z,47.78
2023-05-25T14:32:17.222Z,47.66
2023-05-25T14:34:43.616Z,47.49
2023-05-25T14:37:10.034Z,47.07
2023-05-25T14:39:36.606Z,46.77
2023-05-25T14:42:03.310Z,47.32
2023-05-25T14:44:29.687Z,47.21
2023-05-25T14:46:56.143Z,47.04
2023-05-25T14:49:24.835Z,47.02
2023-05-25T14:51:51.411Z,47.50
2023-05-25T14:54:17.825Z,46.77
2023-05-25T14:56:44.247Z,46.26
2023-05-25T14:59:10.693Z,46.54
2023-05-25T15:01:37.156Z,46.27
2023-05-25T15:04:03.745Z,46.29
2023-05-25T15:06:31.735Z,46.52
2023-05-25T15:08:58.182Z,46.77
2023-05-25T15:11:24.602Z,46.69
2023-05-25T15:13:51.015Z,46.64
2023-05-25T15:16:17.454Z,46.82
2023-05-25T15:18:43.943Z,46.99
2023-05-25T15:21:10.504Z,46.72
2023-05-25T15:23:37.204Z,47.00
2023-05-25T15:26:07.980Z,47.60
2023-05-25T15:28:34.616Z,47.59
2023-05-25T15:31:02.725Z,47.29
2023-05-25T15:33:39.878Z,47.86
2023-05-25T15:36:14.605Z,47.76
2023-05-25T15:38:42.928Z,47.77
2023-05-25T15:41:09.328Z,47.52
2023-05-25T15:43:35.820Z,47.91
2023-05-25T15:46:02.240Z,47.82
2023-05-25T15:48:28.624Z,47.54
2023-05-25T15:50:55.016Z,47.37
2023-05-25T15:53:21.406Z,47.31
2023-05-25T15:55:47.800Z,47.29
2023-05-25T15:58:14.172Z,47.88
2023-05-25T16:00:40.624Z,48.15
2023-05-25T16:03:07.062Z,48.85
2023-05-25T16:05:33.467Z,48.26
2023-05-25T16:07:59.846Z,48.21
2023-05-25T16:10:26.218Z,48.49
2023-05-25T16:12:52.602Z,48.37
2023-05-25T16:15:19.760Z,48.59
2023-05-25T16:17:46.154Z,48.42
2023-05-25T16:20:12.575Z,47.17
2023-05-25T16:22:39.004Z,46.73
2023-05-25T16:25:05.659Z,47.31
2023-05-25T16:27:32.138Z,47.50
2023-05-25T16:29:58.604Z,47.46
2023-05-25T16:32:25.021Z,47.48
2023-05-25T16:34:51.414Z,47.67
2023-05-25T16:37:17.810Z,47.81
2023-05-25T16:39:44.208Z,47.72
2023-05-25T16:42:10.866Z,47.72
2023-05-25T16:44:37.282Z,47.97
2023-05-25T16:47:03.678Z,47.91
2023-05-25T16:49:30.070Z,47.70
2023-05-25T16:51:56.509Z,47.68
2023-05-25T16:54:22.955Z,47.82
2023-05-25T16:56:49.353Z,47.61
2023-05-25T16:59:15.744Z,47.93
2023-05-25T17:01:42.225Z,47.51
2023-05-25T17:04:08.669Z,47.69
2023-05-25T17:06:35.077Z,47.71
2023-05-25T17:09:01.468Z,47.24
2023-05-25T17:11:28.095Z,46.93
2023-05-25T17:13:54.527Z,47.31
2023-05-25T17:16:21.364Z,47.75
2023-05-25T17:18:47.876Z,47.33
2023-05-25T17:21:14.276Z,47.86
2023-05-25T17:23:41.501Z,47.48
2023-05-25T17:26:07.896Z,47.68
2023-05-25T17:28:34.328Z,47.60
2023-05-25T17:31:01.144Z,47.86
2023-05-25T17:33:27.584Z,47.72
2023-05-25T17:35:54.034Z,47.80
2023-05-25T17:38:20.490Z,47.95
2023-05-25T17:40:48.118Z,47.89
2023-05-25T17:43:14.592Z,47.61
2023-05-25T17:45:41.035Z,47.68
2023-05-25T17:48:07.459Z,47.88
2023-05-25T17:50:33.900Z,47.75
2023-05-25T17:53:00.298Z,47.05
2023-05-25T17:55:27.002Z,47.34
2023-05-25T17:57:53.378Z,47.44
2023-05-25T18:00:22.893Z,48.59
2023-05-25T18:02:50.096Z,49.34
2023-05-25T18:05:16.517Z,49.13
2023-05-25T18:07:42.929Z,48.00
2023-05-25T18:10:09.488Z,47.61
2023-05-25T18:12:35.868Z,48.37
2023-05-25T18:15:02.481Z,47.92
2023-05-25T18:17:28.890Z,48.13
2023-05-25T18:19:55.604Z,48.30
2023-05-25T18:22:22.018Z,48.34
2023-05-25T18:24:48.416Z,48.22
2023-05-25T18:27:14.802Z,48.34
2023-05-25T18:29:41.332Z,48.27
2023-05-25T18:32:07.715Z,48.39
2023-05-25T18:34:34.098Z,48.60
2023-05-25T18:37:00.553Z,48.84
2023-05-25T18:39:26.933Z,49.27
2023-05-25T18:41:53.359Z,49.06
2023-05-25T18:44:19.763Z,49.35
2023-05-25T18:46:48.328Z,49.52
2023-05-25T18:49:14.774Z,49.39
2023-05-25T18:51:41.180Z,49.49
2023-05-25T18:54:07.571Z,49.51
2023-05-25T18:56:33.935Z,49.32
2023-05-25T18:59:00.518Z,49.74
2023-05-25T19:01:26.888Z,49.75
2023-05-25T19:03:56.022Z,49.86
2023-05-25T19:06:23.961Z,49.67
2023-05-25T19:08:50.352Z,49.31
2023-05-25T19:11:16.842Z,49.58
2023-05-25T19:13:43.362Z,49.59
2023-05-25T19:16:09.819Z,49.39
2023-05-25T19:18:36.238Z,49.22
2023-05-25T19:21:02.772Z,49.26
2023-05-25T19:23:29.191Z,49.57
2023-05-25T19:25:55.573Z,49.31
2023-05-25T19:28:21.960Z,49.32
2023-05-25T19:30:48.361Z,49.29
2023-05-25T19:33:14.838Z,49.41
2023-05-25T19:35:41.636Z,49.65
2023-05-25T19:38:08.033Z,49.68
2023-05-25T19:40:34.414Z,49.74
2023-05-25T19:43:00.790Z,49.66
2023-05-25T19:45:27.244Z,49.54
2023-05-25T19:47:54.434Z,49.40
2023-05-25T19:50:21.377Z,49.37
2023-05-25T19:52:47.758Z,49.27
2023-05-25T19:55:14.148Z,49.51
2023-05-25T19:57:40.610Z,49.64
2023-05-25T20:00:11.553Z,49.76
2023-05-25T20:02:47.490Z,49.74
2023-05-25T20:05:13.939Z,49.76
2023-05-25T20:07:41.057Z,49.63
2023-05-25T20:10:07.627Z,49.66
2023-05-25T20:12:34.980Z,49.73
2023-05-25T20:15:01.367Z,49.64
2023-05-25T20:17:27.976Z,49.70
2023-05-25T20:19:56.379Z,49.80
2023-05-25T20:22:22.921Z,49.62
2023-05-25T20:24:50.449Z,49.58
2023-05-25T20:27:17.286Z,49.81
2023-05-25T20:29:43.659Z,49.37
2023-05-25T20:32:10.151Z,49.54
2023-05-25T20:34:36.702Z,49.61
2023-05-25T20:37:03.101Z,49.82
2023-05-25T20:39:29.495Z,49.79
2023-05-25T20:41:56.024Z,49.59
2023-05-25T20:44:22.402Z,49.73
2023-05-25T20:46:48.817Z,49.79
2023-05-25T20:49:15.429Z,49.46
2023-05-25T20:51:44.352Z,49.44
2023-05-25T20:54:10.918Z,49.43
2023-05-25T20:56:37.285Z,49.69
2023-05-25T20:59:03.684Z,49.82
2023-05-25T21:01:30.664Z,49.43
2023-05-25T21:03:57.194Z,49.57
2023-05-25T21:06:23.657Z,49.61
2023-05-25T21:08:50.061Z,49.58
2023-05-25T21:11:16.484Z,49.73
2023-05-25T21:13:42.881Z,49.65
2023-05-25T21:16:09.328Z,49.56
2023-05-25T21:18:35.724Z,49.63
2023-05-25T21:21:02.094Z,49.61
2023-05-25T21:23:28.698Z,49.73
2023-05-25T21:25:55.086Z,49.45
2023-05-25T21:28:21.468Z,49.54
2023-05-25T21:30:47.838Z,49.83
2023-05-25T21:33:14.336Z,49.84
2023-05-25T21:35:40.808Z,49.60
2023-05-25T21:38:07.194Z,49.77
2023-05-25T21:40:33.574Z,49.54
2023-05-25T21:42:59.956Z,49.61
2023-05-25T21:45:26.344Z,49.61
2023-05-25T21:47:52.850Z,49.55
2023-05-25T21:50:19.319Z,49.76
2023-05-25T21:52:46.053Z,49.56
2023-05-25T21:55:12.440Z,49.54
2023-05-25T21:57:38.829Z,49.71
2023-05-25T22:00:06.201Z,49.79
2023-05-25T22:02:39.225Z,49.50
2023-05-25T22:05:05.723Z,49.54
2023-05-25T22:07:32.142Z,49.94
2023-05-25T22:09:58.516Z,49.96
2023-05-25T22:12:24.879Z,50.06
2023-05-25T22:14:51.269Z,50.08
2023-05-25T22:17:18.883Z,49.79
2023-05-25T22:19:52.115Z,49.88
2023-05-25T22:22:25.679Z,50.03
2023-05-25T22:24:52.088Z,50.20
2023-05-25T22:27:18.494Z,49.84
2023-05-25T22:29:44.892Z,50.08
2023-05-25T22:32:11.302Z,50.11
2023-05-25T22:34:37.687Z,49.69
2023-05-25T22:37:04.239Z,50.07
2023-05-25T22:39:30.614Z,50.07
2023-05-25T22:41:57.036Z,50.06
2023-05-25T22:44:23.433Z,49.88
2023-05-25T22:46:49.887Z,50.14
2023-05-25T22:49:16.519Z,49.95
2023-05-25T22:51:42.895Z,50.06
2023-05-25T22:54:09.283Z,49.97
2023-05-25T22:56:36.116Z,49.89
2023-05-25T22:59:02.522Z,50.08
2023-05-25T23:01:28.935Z,49.72
2023-05-25T23:03:55.481Z,50.10
2023-05-25T23:06:21.980Z,50.36
2023-05-25T23:08:48.395Z,50.33
2023-05-25T23:11:14.779Z,50.45
2023-05-25T23:13:42.702Z,50.17
2023-05-25T23:16:09.096Z,50.41
2023-05-25T23:18:35.520Z,50.60
2023-05-25T23:21:01.961Z,50.42
2023-05-25T23:23:28.445Z,50.33
2023-05-25T23:25:54.937Z,50.38
2023-05-25T23:28:21.390Z,50.24
2023-05-25T23:30:47.803Z,50.42
2023-05-25T23:33:14.188Z,50.54
2023-05-25T23:35:40.567Z,50.54
2023-05-25T23:38:06.990Z,50.33
2023-05-25T23:40:33.365Z,50.48
2023-05-25T23:42:59.796Z,50.42
2023-05-25T23:45:26.360Z,50.23
2023-05-25T23:47:52.837Z,50.32
2023-05-25T23:50:19.358Z,50.49
2023-05-25T23:52:46.267Z,50.31
2023-05-25T23:55:12.826Z,50.06
2023-05-25T23:57:39.494Z,50.33
